Clinton, OK

04:06 PM CST die 05o February, anno 2016 (GMT -0600)
Clinton Municipal | | Change Station
CLOSE
Current Station
Airport
Location: Clinton,
Elevation: 1614 ft
Nearby Weather Stations

Elev 1614 ft 35.54 °N, 98.93 °W | Updated 11 minutes ago

Aequaliter Nubila
Aequaliter Nubila
52 °F
Feels Like 52 °F
N
14
Ventus Variabilis Ventus from Auster

Hodie
High -- | Low -- °F
--% Chance of Precip.
Yesterday
High -- | Low -- °F
Precip. -- in
Pressio 30.20 in
Visibilitas 10.0 milia passuum
Clouds Aequaliter Nubila 11000 ft
Frigus in quo Ros apparet 19 °F
Umor 28%
Rainfall 0.00 in
Snow Depth Not available.
7:32 AM 6:07 PM
Waning Crescent, 9% visible
METAR KCLK 052155Z AUTO 17012KT 10SM OVC110 11/M07 A3020 RMK AO2
Pressio 30.20 in
Visibilitas 10.0 milia passuum
Clouds Aequaliter Nubila 11000 ft
Frigus in quo Ros apparet 19 °F
Umor 28%
Rainfall 0.00 in
Snow Depth Not available.
7:32 AM 6:07 PM
Waning Crescent, 9% visible
METAR KCLK 052155Z AUTO 17012KT 10SM OVC110 11/M07 A3020 RMK AO2

10-Day Weather Forecast

Almanac

Astronomy

Feb. 05, 2016 Rise Set
Actual Time
Civil Twilight
Nautical Twilight
Astronomical Twilight
Moon
Length Of Visible Light
Length of Day
Tomorrow will be .
, % of the Moon is Illuminated

Today's Extremes

State Highs State Lows

Community

WunderPhotos

Upload Photos

1,890,873 photos uploaded!

WunderBlog® & News

Nearby

Air Quality

  Air Quality AQ Index Pollutant
Not available.

Snow Depth

Station Depth Elevation

Earthquake Activity

City Distance Mag. Time & Date
Minimum magnitude displayed is 2.5.

Coastal Water Temperatures

Locus Calor

Stations

Nearby Weather Stations

Station Location Temp Frigus Venti Frigus in quo Ros apparet Umor Ventus Precip. Elev Renovata Type
                   

Watches & Warnings

There are currently no watches in effect.